KCMH Airport Diagram

We have created a template for each of the higher traffic airports in the vZID airspace. They include KCMH, KCRW, KCVG, KDAY, KIND, KLEX and KSDF. You wil find usefull information including the airport diagram, weather, and specific airport procedures.

KCMH Weather

[Source: ADDS]
METAR
KCMH 191420Z 23004KT 4SM BR OVC008 09/07 A3004 RMK AO2 T00890067 =
TAF
KCMH 191141Z 1912/2012 27005KT 2SM BR OVC010 FM191500 27005KT P6SM OVC015 FM191600 26006KT P6SM BKN030 FM191700 26006KT P6SM FEW025 SCT050 FM192000 27006KT P6SM FEW025 FEW200 FM200400 00000KT P6SM SCT070 =
JSN Epic template designed by JoomlaShine.com